Time;durP1;ratioP1;P1;durP2;ratioP2;P2;SDS_P1;SDS_P2;PMS_P1;PMS_P2;Temp;Humidity;BMP_temperature;BMP_pressure;BME280_temperature;BME280_humidity;BME280_pressure;Samples;Min_cycle;Max_cycle;Signal;HPM_P1;HPM_P2
2021/12/20 00:01:57;;;;;;;54.60;27.40;;;;;;;2.41;100.00;100619.53;6216179;23;20004;-85
2021/12/20 00:04:23;;;;;;;67.00;30.30;;;;;;;2.25;100.00;100618.94;6217174;23;20062;-85
2021/12/20 00:06:49;;;;;;;61.08;30.80;;;;;;;2.27;100.00;100611.81;6215345;23;20016;-83
2021/12/20 00:09:15;;;;;;;65.60;32.55;;;;;;;1.64;100.00;100606.59;6214801;23;20009;-84
2021/12/20 00:11:40;;;;;;;61.33;31.05;;;;;;;1.31;100.00;100604.47;6215018;23;20011;-84
2021/12/20 00:14:06;;;;;;;62.40;32.63;;;;;;;1.37;100.00;100607.50;6214655;23;20001;-83
2021/12/20 00:16:32;;;;;;;60.78;28.52;;;;;;;1.27;100.00;100609.06;6214509;23;20008;-82
2021/12/20 00:18:57;;;;;;;64.60;29.45;;;;;;;1.07;100.00;100599.06;6214923;23;20085;-85
2021/12/20 00:21:23;;;;;;;62.90;28.15;;;;;;;0.92;100.00;100592.25;6214785;23;20012;-83
2021/12/20 00:23:49;;;;;;;59.15;28.80;;;;;;;0.85;100.00;100588.38;6214708;23;20013;-83
2021/12/20 00:26:14;;;;;;;58.60;28.65;;;;;;;1.02;100.00;100588.13;6214722;23;20000;-84
2021/12/20 00:28:41;;;;;;;62.28;29.67;;;;;;;1.20;100.00;100591.28;6213727;23;20497;-82
2021/12/20 00:31:07;;;;;;;62.28;30.40;;;;;;;1.32;100.00;100580.88;6213286;23;20016;-81
2021/12/20 00:33:33;;;;;;;64.03;31.13;;;;;;;1.05;100.00;100587.91;6213643;23;20020;-81
2021/12/20 00:36:01;;;;;;;64.38;31.25;;;;;;;0.92;100.00;100581.81;6213181;23;20001;-83
2021/12/20 00:41:11;;;;;;;60.85;28.02;;;;;;;1.11;100.00;100574.47;6213457;23;20016;-82
2021/12/20 00:43:36;;;;;;;55.17;26.60;;;;;;;1.37;100.00;100583.16;6213287;23;20063;-82
2021/12/20 00:46:02;;;;;;;60.33;27.23;;;;;;;1.34;100.00;100576.38;6213106;23;20511;-81
2021/12/20 00:48:27;;;;;;;58.17;27.85;;;;;;;1.45;100.00;100581.75;6213524;23;20008;-82
2021/12/20 00:50:53;;;;;;;56.13;27.30;;;;;;;1.53;100.00;100578.59;6212937;23;20020;-82
2021/12/20 00:53:19;;;;;;;56.85;27.85;;;;;;;1.54;100.00;100575.03;6213820;23;20021;-83
2021/12/20 00:55:44;;;;;;;56.47;28.30;;;;;;;1.39;100.00;100576.09;6214478;23;20510;-82
2021/12/20 00:58:10;;;;;;;54.33;26.88;;;;;;;1.24;100.00;100567.50;6219830;23;20021;-83
2021/12/20 01:00:40;;;;;;;53.60;27.27;;;;;;;1.41;100.00;100564.59;6225484;22;20027;-84
2021/12/20 01:03:07;;;;;;;58.35;27.58;;;;;;;1.29;100.00;100561.97;6243128;22;20001;-82
2021/12/20 01:05:34;;;;;;;63.45;30.13;;;;;;;1.37;100.00;100557.91;6233453;22;20008;-81
2021/12/20 01:08:02;;;;;;;63.22;30.52;;;;;;;1.14;100.00;100561.22;6214811;23;20092;-82
2021/12/20 01:10:29;;;;;;;64.68;32.05;;;;;;;1.22;100.00;100558.09;6214773;23;20013;-81
2021/12/20 01:12:58;;;;;;;72.78;33.63;;;;;;;1.03;100.00;100558.47;6214886;23;20008;-84
2021/12/20 01:15:34;;;;;;;65.72;33.22;;;;;;;0.91;100.00;100547.06;6214882;23;20119;-81
2021/12/20 01:18:01;;;;;;;68.72;33.20;;;;;;;0.83;100.00;100546.72;6214924;23;20075;-82
2021/12/20 01:20:27;;;;;;;71.10;33.75;;;;;;;0.83;100.00;100543.28;6214800;23;20016;-82
2021/12/20 01:22:53;;;;;;;66.25;32.22;;;;;;;0.94;100.00;100539.03;6215094;23;20013;-83
2021/12/20 01:25:20;;;;;;;77.88;33.13;;;;;;;0.92;100.00;100550.50;6214714;23;20470;-83
2021/12/20 01:27:46;;;;;;;65.03;31.40;;;;;;;0.95;100.00;100545.09;6214962;23;20082;-81
2021/12/20 01:30:14;;;;;;;64.68;29.63;;;;;;;1.13;100.00;100538.66;6214773;23;20020;-82
2021/12/20 01:32:41;;;;;;;64.50;29.27;;;;;;;1.23;100.00;100544.94;6214763;23;20047;-82
2021/12/20 01:35:07;;;;;;;59.72;29.77;;;;;;;1.32;100.00;100539.13;6189161;23;20263;-83
2021/12/20 01:37:33;;;;;;;58.42;28.27;;;;;;;1.12;100.00;100531.78;6216844;23;20009;-83
2021/12/20 01:39:59;;;;;;;56.60;27.17;;;;;;;1.01;100.00;100526.41;6216794;23;20016;-83
2021/12/20 01:42:27;;;;;;;59.75;27.50;;;;;;;0.74;100.00;100526.44;6215620;23;20013;-84
2021/12/20 01:44:56;;;;;;;58.97;27.65;;;;;;;0.62;100.00;100518.59;6216220;23;20000;-83
2021/12/20 01:47:23;;;;;;;50.20;25.42;;;;;;;0.65;100.00;100513.19;6216086;23;20008;-83
2021/12/20 01:50:01;;;;;;;48.83;25.75;;;;;;;0.62;100.00;100521.19;6215942;23;20013;-83
2021/12/20 01:52:29;;;;;;;49.70;25.13;;;;;;;0.62;100.00;100506.41;6216210;23;20080;-83
2021/12/20 01:54:55;;;;;;;50.88;25.58;;;;;;;0.51;100.00;100504.47;6216277;23;20016;-83
2021/12/20 01:57:22;;;;;;;52.33;26.90;;;;;;;0.50;100.00;100499.34;6217990;23;20056;-84
2021/12/20 01:59:48;;;;;;;56.30;28.02;;;;;;;0.46;100.00;100492.69;6222002;23;20087;-83
2021/12/20 02:02:13;;;;;;;56.03;28.23;;;;;;;0.46;100.00;100496.09;6218269;23;20013;-80
2021/12/20 02:04:46;;;;;;;54.40;28.17;;;;;;;0.49;100.00;100490.72;6217638;23;20009;-82
2021/12/20 02:07:30;;;;;;;60.70;28.67;;;;;;;0.47;100.00;100484.75;6217110;23;20069;-82
2021/12/20 02:09:56;;;;;;;58.30;26.83;;;;;;;0.46;100.00;100470.03;6217670;23;20020;-82
2021/12/20 02:12:22;;;;;;;54.75;26.45;;;;;;;0.43;100.00;100474.63;6218252;23;20009;-83
2021/12/20 02:14:47;;;;;;;54.08;26.83;;;;;;;0.38;100.00;100461.88;6217007;23;20017;-82
2021/12/20 02:17:14;;;;;;;56.88;27.33;;;;;;;0.33;100.00;100458.72;6216582;23;20444;-82
2021/12/20 02:19:39;;;;;;;57.13;27.40;;;;;;;0.46;100.00;100449.16;6217903;23;20414;-83
2021/12/20 02:22:05;;;;;;;60.05;29.35;;;;;;;0.50;100.00;100455.03;6218211;23;20036;-84
2021/12/20 02:24:31;;;;;;;54.67;28.58;;;;;;;0.50;100.00;100453.25;6217233;23;20092;-83
2021/12/20 02:26:57;;;;;;;58.47;29.00;;;;;;;0.48;100.00;100444.72;6217381;23;20008;-82
2021/12/20 02:29:39;;;;;;;62.33;29.05;;;;;;;0.52;100.00;100440.97;6217618;23;20063;-83
2021/12/20 02:37:33;;;;;;;58.45;29.23;;;;;;;0.34;100.00;100438.72;6216013;23;20040;-83
2021/12/20 02:39:58;;;;;;;57.00;28.25;;;;;;;0.33;100.00;100427.44;6216350;23;20009;-81
2021/12/20 02:42:29;;;;;;;62.15;30.92;;;;;;;0.35;100.00;100430.81;6216243;23;20019;-82
2021/12/20 02:45:15;;;;;;;58.88;30.55;;;;;;;0.41;100.00;100414.75;6215867;23;20067;-83
2021/12/20 02:47:47;;;;;;;61.08;31.98;;;;;;;0.38;100.00;100417.56;6216323;23;20016;-82
2021/12/20 02:50:14;;;;;;;65.65;32.10;;;;;;;0.32;100.00;100415.38;6216046;23;20013;-82
2021/12/20 02:52:40;;;;;;;65.45;33.05;;;;;;;0.31;100.00;100405.03;6215963;23;20012;-83
2021/12/20 02:55:08;;;;;;;63.88;33.13;;;;;;;0.27;100.00;100406.16;6216470;23;20005;-83
2021/12/20 02:57:38;;;;;;;73.80;35.72;;;;;;;0.27;100.00;100406.16;6215878;23;20019;-84
2021/12/20 03:00:06;;;;;;;63.45;33.55;;;;;;;0.22;100.00;100398.66;6215835;23;20023;-80
2021/12/20 03:02:32;;;;;;;69.25;34.42;;;;;;;0.23;100.00;100408.13;6215856;23;20009;-82
2021/12/20 03:04:57;;;;;;;70.88;34.80;;;;;;;0.31;100.00;100403.25;6215717;23;20462;-81
2021/12/20 03:07:27;;;;;;;69.97;33.92;;;;;;;0.40;100.00;100386.16;6216115;23;20372;-82
2021/12/20 03:10:00;;;;;;;69.13;34.38;;;;;;;0.32;100.00;100389.31;6215005;23;20095;-83
2021/12/20 03:12:28;;;;;;;77.18;36.85;;;;;;;0.30;100.00;100378.13;6215555;23;20016;-82
2021/12/20 03:15:01;;;;;;;66.63;36.35;;;;;;;0.32;100.00;100378.88;6215808;23;20016;-83
2021/12/20 03:17:27;;;;;;;80.47;39.90;;;;;;;0.28;100.00;100376.56;6215609;23;20384;-82
2021/12/20 03:19:53;;;;;;;79.88;39.88;;;;;;;0.27;100.00;100386.16;6189358;23;20380;-83
2021/12/20 03:22:18;;;;;;;77.70;39.15;;;;;;;0.28;100.00;100380.00;6216140;23;20009;-82
2021/12/20 03:24:44;;;;;;;76.80;38.47;;;;;;;0.27;100.00;100375.72;6215371;23;20208;-81
2021/12/20 03:27:10;;;;;;;76.22;39.10;;;;;;;0.16;100.00;100366.94;6215769;23;20001;-83
2021/12/20 03:29:36;;;;;;;77.05;39.90;;;;;;;0.13;100.00;100367.16;6215540;23;20100;-83
2021/12/20 03:32:02;;;;;;;74.95;39.17;;;;;;;0.11;100.00;100364.63;6214989;23;20432;-82
2021/12/20 03:34:28;;;;;;;80.63;40.67;;;;;;;0.07;100.00;100368.38;6215241;23;20063;-83
2021/12/20 03:36:53;;;;;;;78.28;39.92;;;;;;;0.20;100.00;100356.22;6215326;23;20020;-83
2021/12/20 03:39:19;;;;;;;81.75;41.38;;;;;;;0.19;100.00;100362.38;6215497;23;20439;-82
2021/12/20 03:41:44;;;;;;;77.22;40.47;;;;;;;0.14;100.00;100354.00;6215447;23;20139;-82
2021/12/20 03:44:11;;;;;;;78.80;39.30;;;;;;;0.26;100.00;100358.44;6215937;23;20017;-83
2021/12/20 03:46:36;;;;;;;84.65;41.25;;;;;;;0.21;100.00;100349.22;6215603;23;20012;-82
2021/12/20 03:49:06;;;;;;;81.55;39.45;;;;;;;0.18;100.00;100352.03;6215683;23;20062;-83
2021/12/20 03:51:33;;;;;;;75.72;39.85;;;;;;;0.17;100.00;100342.53;6194844;23;20313;-82
2021/12/20 03:53:58;;;;;;;75.57;37.85;;;;;;;0.32;100.00;100345.00;6228647;22;19996;-82
2021/12/20 03:56:24;;;;;;;72.47;38.17;;;;;;;0.38;100.00;100344.59;6243752;22;19997;-83
2021/12/20 03:58:50;;;;;;;73.35;36.90;;;;;;;0.25;100.00;100343.72;6235345;22;20013;-83
2021/12/20 04:01:16;;;;;;;73.82;38.88;;;;;;;0.30;100.00;100328.59;6215578;23;20040;-82
2021/12/20 04:03:42;;;;;;;78.75;38.25;;;;;;;0.44;100.00;100331.13;6215558;23;20042;-83
2021/12/20 04:06:10;;;;;;;75.95;38.60;;;;;;;0.35;100.00;100336.13;6215435;23;20020;-82
2021/12/20 04:08:36;;;;;;;79.32;39.10;;;;;;;0.36;100.00;100336.03;6215279;23;20039;-83
2021/12/20 04:11:03;;;;;;;79.55;40.40;;;;;;;0.38;100.00;100320.28;6215474;23;20023;-83
2021/12/20 04:13:28;;;;;;;77.65;39.00;;;;;;;0.38;100.00;100315.91;6217532;23;20009;-83
2021/12/20 04:15:54;;;;;;;71.53;36.90;;;;;;;0.42;100.00;100312.16;6215026;23;20439;-84
2021/12/20 04:18:22;;;;;;;74.78;37.70;;;;;;;0.44;100.00;100315.50;6215097;23;20017;-82
2021/12/20 04:20:52;;;;;;;72.30;38.33;;;;;;;0.30;100.00;100320.78;6214960;23;20462;-81
2021/12/20 04:23:17;;;;;;;78.85;39.78;;;;;;;0.31;100.00;100319.88;6214934;23;20008;-83
2021/12/20 04:25:46;;;;;;;75.72;39.03;;;;;;;0.36;100.00;100309.97;6215256;23;20112;-83
2021/12/20 04:28:12;;;;;;;75.68;39.65;;;;;;;0.36;100.00;100317.81;6214958;23;20012;-83
2021/12/20 04:30:40;;;;;;;74.63;38.72;;;;;;;0.23;100.00;100316.91;6214703;23;20017;-83
2021/12/20 04:33:06;;;;;;;75.20;36.42;;;;;;;0.18;100.00;100311.19;6215379;23;20019;-82
2021/12/20 04:35:31;;;;;;;71.85;36.28;;;;;;;0.08;100.00;100312.72;6215069;23;20420;-83
2021/12/20 04:37:59;;;;;;;71.82;36.70;;;;;;;0.10;100.00;100320.47;6214824;23;20447;-83
2021/12/20 04:40:25;;;;;;;71.60;37.47;;;;;;;0.04;100.00;100315.63;6215719;23;20024;-82
2021/12/20 04:42:56;;;;;;;72.68;36.67;;;;;;;0.10;100.00;100317.84;6214941;23;20016;-82
2021/12/20 04:45:22;;;;;;;72.95;34.85;;;;;;;0.27;100.00;100315.78;6215102;23;20103;-86
2021/12/20 04:47:48;;;;;;;67.03;34.05;;;;;;;0.57;100.00;100309.44;6215173;23;20013;-83
2021/12/20 04:50:14;;;;;;;72.25;36.17;;;;;;;0.65;100.00;100315.00;6215025;23;20009;-81
2021/12/20 04:52:41;;;;;;;78.25;37.72;;;;;;;0.50;100.00;100317.69;6215308;23;20085;-84
2021/12/20 04:55:09;;;;;;;70.75;34.92;;;;;;;0.63;100.00;100309.06;6215006;23;20463;-82
2021/12/20 04:57:38;;;;;;;66.15;36.03;;;;;;;0.69;100.00;100306.03;6215097;23;20013;-82
2021/12/20 05:00:12;;;;;;;59.80;33.13;;;;;;;0.79;100.00;100309.66;6215361;23;20012;-83
2021/12/20 05:02:37;;;;;;;69.32;36.28;;;;;;;0.83;100.00;100316.34;6215237;23;20023;-83
2021/12/20 05:05:03;;;;;;;63.33;34.00;;;;;;;0.72;100.00;100313.63;6214755;23;20009;-83
2021/12/20 05:07:29;;;;;;;60.58;32.47;;;;;;;0.84;100.00;100323.22;6188582;23;20020;-81
2021/12/20 05:10:01;;;;;;;64.60;31.95;;;;;;;1.03;100.00;100318.38;6215160;23;20336;-82
2021/12/20 05:12:27;;;;;;;64.57;33.22;;;;;;;0.86;100.00;100324.78;6214983;23;20009;-83
2021/12/20 05:14:52;;;;;;;65.15;32.65;;;;;;;0.52;100.00;100312.38;6215213;23;20066;-82
2021/12/20 05:17:18;;;;;;;64.32;32.25;;;;;;;0.84;100.00;100323.22;6214889;23;20344;-81
2021/12/20 05:19:43;;;;;;;57.65;31.33;;;;;;;0.87;100.00;100315.19;6214624;23;20012;-83
2021/12/20 05:22:10;;;;;;;62.60;31.08;;;;;;;0.84;100.00;100318.00;6214554;23;20004;-82
2021/12/20 05:24:36;;;;;;;56.28;30.38;;;;;;;0.81;100.00;100315.59;6214370;23;20012;-83
2021/12/20 05:27:02;;;;;;;57.33;30.83;;;;;;;0.63;100.00;100314.28;6213713;23;20013;-81
2021/12/20 05:29:28;;;;;;;51.97;27.70;;;;;;;0.78;100.00;100313.22;6214740;23;20043;-82
2021/12/20 05:31:54;;;;;;;52.10;25.73;;;;;;;0.73;100.00;100305.69;6214907;23;20001;-82
2021/12/20 05:34:20;;;;;;;48.80;24.95;;;;;;;0.66;100.00;100314.06;6216186;23;20019;-81
2021/12/20 05:36:46;;;;;;;50.33;25.95;;;;;;;0.53;100.00;100309.66;6216647;23;20093;-82
2021/12/20 05:39:12;;;;;;;46.78;24.88;;;;;;;0.38;100.00;100313.31;6216945;23;20036;-83
2021/12/20 05:41:38;;;;;;;53.03;26.33;;;;;;;0.31;100.00;100298.16;6217253;23;20070;-81
2021/12/20 05:44:04;;;;;;;48.47;24.45;;;;;;;0.37;100.00;100305.56;6190159;23;20431;-81
2021/12/20 05:46:29;;;;;;;39.85;21.77;;;;;;;0.38;100.00;100299.44;6216495;23;20055;-82
2021/12/20 05:48:55;;;;;;;47.95;24.92;;;;;;;0.25;100.00;100294.22;6216949;23;20428;-82
2021/12/20 05:51:21;;;;;;;52.42;24.25;;;;;;;0.07;100.00;100295.41;6190746;23;20012;-82
2021/12/20 05:53:46;;;;;;;54.60;26.90;;;;;;;0.13;100.00;100292.44;6219222;23;20016;-83
2021/12/20 05:56:12;;;;;;;54.78;26.50;;;;;;;0.12;100.00;100288.16;6217407;23;20095;-83
2021/12/20 05:58:38;;;;;;;48.00;24.65;;;;;;;0.38;100.00;100292.44;6216713;23;20090;-83
2021/12/20 06:01:03;;;;;;;45.83;24.33;;;;;;;0.56;100.00;100293.00;6216878;23;20017;-82
2021/12/20 06:03:29;;;;;;;53.20;25.42;;;;;;;0.44;100.00;100286.81;6217799;23;20087;-82
2021/12/20 06:05:54;;;;;;;48.15;24.98;;;;;;;0.62;100.00;100289.97;6192370;23;20013;-84
2021/12/20 06:08:20;;;;;;;48.67;24.13;;;;;;;0.79;100.00;100284.44;6218104;23;20078;-87
2021/12/20 06:10:46;;;;;;;45.72;23.65;;;;;;;0.79;100.00;100278.38;6192433;23;20023;-88
2021/12/20 06:13:11;;;;;;;46.30;22.45;;;;;;;0.75;100.00;100275.13;6192684;23;20004;-88
2021/12/20 06:15:37;;;;;;;45.45;23.55;;;;;;;0.80;100.00;100277.41;6192172;23;20040;-86
2021/12/20 06:18:02;;;;;;;43.00;22.50;;;;;;;0.79;100.00;100262.72;6220219;23;20436;-84
2021/12/20 06:20:28;;;;;;;43.53;23.35;;;;;;;0.74;100.00;100262.19;6223580;23;20008;-84
2021/12/20 06:22:54;;;;;;;42.92;22.25;;;;;;;0.77;100.00;100260.22;6229464;23;20099;-84
2021/12/20 06:25:20;;;;;;;48.03;22.17;;;;;;;0.91;100.00;100272.28;6202697;23;20012;-87
2021/12/20 06:27:47;;;;;;;51.13;23.65;;;;;;;0.72;100.00;100277.13;6202549;23;20015;-86
2021/12/20 06:30:14;;;;;;;44.50;22.13;;;;;;;0.59;100.00;100284.13;6233933;23;20013;-87
2021/12/20 06:32:44;;;;;;;52.05;24.13;;;;;;;0.36;100.00;100270.88;6201450;23;20016;-83
2021/12/20 06:35:10;;;;;;;44.53;24.23;;;;;;;0.49;100.00;100276.94;6223833;23;20534;-86
2021/12/20 06:37:39;;;;;;;47.38;24.70;;;;;;;0.69;100.00;100277.34;6223961;23;20072;-87
2021/12/20 06:40:05;;;;;;;51.20;25.77;;;;;;;0.71;100.00;100296.31;6222904;23;20008;-88
2021/12/20 06:42:31;;;;;;;56.38;29.90;;;;;;;0.80;100.00;100290.44;6219331;23;20019;-88
2021/12/20 06:44:57;;;;;;;64.38;32.42;;;;;;;0.88;100.00;100290.78;6168526;23;20032;-87
2021/12/20 06:47:23;;;;;;;58.75;30.90;;;;;;;0.80;100.00;100295.66;6224862;23;20015;-85
2021/12/20 06:49:49;;;;;;;66.13;32.95;;;;;;;0.70;100.00;100279.81;6219550;23;20005;-85
2021/12/20 06:52:14;;;;;;;63.90;34.47;;;;;;;0.61;100.00;100303.09;6220519;23;20012;-87
2021/12/20 06:54:40;;;;;;;65.85;35.08;;;;;;;0.70;100.00;100294.63;6191162;23;20043;-87
2021/12/20 06:57:06;;;;;;;65.97;32.35;;;;;;;0.69;100.00;100306.88;6217087;23;20674;-86
2021/12/20 06:59:32;;;;;;;63.38;30.80;;;;;;;0.72;100.00;100300.59;6217999;23;20012;-85
2021/12/20 07:01:57;;;;;;;59.00;31.75;;;;;;;0.93;100.00;100307.75;6190623;23;20005;-85
2021/12/20 07:04:23;;;;;;;65.03;34.03;;;;;;;1.05;100.00;100311.31;6216644;23;20083;-86
2021/12/20 07:06:49;;;;;;;70.78;36.60;;;;;;;1.26;100.00;100319.41;6217978;23;20039;-86
2021/12/20 07:09:15;;;;;;;82.38;38.40;;;;;;;1.36;100.00;100320.44;6217748;23;20019;-87
2021/12/20 07:11:42;;;;;;;66.75;34.42;;;;;;;1.56;100.00;100328.50;6217628;23;20380;-87
2021/12/20 07:14:08;;;;;;;53.10;28.58;;;;;;;1.90;100.00;100320.84;6216733;23;20464;-86
2021/12/20 07:16:37;;;;;;;47.58;25.05;;;;;;;1.59;100.00;100316.19;6219689;23;20085;-90
2021/12/20 07:19:05;;;;;;;55.22;24.58;;;;;;;1.25;100.00;100317.75;6195763;23;20012;-86
2021/12/20 07:21:33;;;;;;;41.83;21.50;;;;;;;1.25;100.00;100323.81;6222111;23;20023;-86
2021/12/20 07:23:59;;;;;;;48.85;24.23;;;;;;;0.98;100.00;100320.50;6219269;23;20007;-90
2021/12/20 07:26:25;;;;;;;43.00;21.88;;;;;;;0.52;100.00;100318.44;6218581;23;20028;-85
2021/12/20 07:28:51;;;;;;;67.35;34.97;;;;;;;0.88;100.00;100322.91;6218711;23;20062;-86
2021/12/20 07:31:16;;;;;;;59.15;30.33;;;;;;;1.85;100.00;100329.03;6191212;23;20341;-86
2021/12/20 07:33:45;;;;;;;49.33;25.00;;;;;;;2.48;100.00;100344.38;6163868;23;20504;-86
2021/12/20 07:36:14;;;;;;;51.33;25.67;;;;;;;3.22;97.87;100329.06;6218802;23;20016;-89
2021/12/20 07:38:41;;;;;;;72.70;35.53;;;;;;;3.15;93.82;100320.84;6192578;23;20020;-87
2021/12/20 07:41:07;;;;;;;46.90;24.60;;;;;;;3.79;92.88;100321.81;6190802;23;20012;-86
2021/12/20 07:43:33;;;;;;;40.60;19.73;;;;;;;4.38;88.09;100337.06;6190951;23;20008;-88
2021/12/20 07:45:59;;;;;;;41.17;20.75;;;;;;;4.76;87.02;100333.88;6217681;23;20035;-87
2021/12/20 07:48:25;;;;;;;44.38;23.40;;;;;;;5.55;83.73;100336.56;6218221;23;20017;-86
2021/12/20 07:50:51;;;;;;;48.25;23.00;;;;;;;5.43;80.14;100337.63;6216792;23;20020;-88
2021/12/20 07:53:17;;;;;;;53.20;24.35;;;;;;;5.58;81.33;100338.91;6218671;23;20072;-85
2021/12/20 07:55:43;;;;;;;47.30;23.75;;;;;;;5.20;83.34;100346.69;6215623;23;20008;-85
2021/12/20 07:58:09;;;;;;;44.88;24.05;;;;;;;5.16;84.16;100361.03;6216338;23;20020;-86
2021/12/20 08:00:35;;;;;;;47.00;23.63;;;;;;;4.77;85.12;100343.44;6217823;23;20009;-87
2021/12/20 08:03:01;;;;;;;42.92;23.02;;;;;;;4.09;88.35;100339.47;6192113;23;20344;-85
2021/12/20 08:05:28;;;;;;;35.58;21.20;;;;;;;4.22;92.04;100332.25;6219477;23;20004;-85
2021/12/20 08:07:54;;;;;;;37.35;21.17;;;;;;;4.12;91.39;100326.09;6217234;23;20379;-87
2021/12/20 08:10:22;;;;;;;53.55;27.05;;;;;;;4.30;88.88;100314.13;6217158;23;20074;-86
2021/12/20 08:12:48;;;;;;;53.13;26.48;;;;;;;3.92;91.70;100324.28;6190251;23;20371;-87
2021/12/20 08:15:15;;;;;;;52.53;26.75;;;;;;;3.80;91.69;100330.53;6192451;23;20032;-85
2021/12/20 08:17:40;;;;;;;52.92;28.80;;;;;;;3.89;94.01;100329.78;6192912;23;20013;-87
2021/12/20 08:20:08;;;;;;;49.00;25.65;;;;;;;3.49;96.08;100338.22;6213743;23;20012;-84
2021/12/20 08:22:34;;;;;;;45.15;25.33;;;;;;;3.35;97.77;100335.84;6190105;23;20011;-84
2021/12/20 08:25:00;;;;;;;44.92;25.35;;;;;;;3.59;97.23;100341.75;6191166;23;20004;-85
2021/12/20 08:27:26;;;;;;;45.38;24.40;;;;;;;3.60;98.17;100346.06;6220170;23;20009;-83
2021/12/20 08:29:52;;;;;;;46.58;24.90;;;;;;;3.38;100.00;100367.03;6222329;23;20012;-84
2021/12/20 08:32:18;;;;;;;50.85;26.35;;;;;;;3.36;100.00;100355.00;6222266;23;20008;-84
2021/12/20 08:34:47;;;;;;;45.13;25.52;;;;;;;3.59;99.45;100352.25;6223290;23;20040;-85
2021/12/20 08:37:13;;;;;;;45.85;25.48;;;;;;;3.63;100.00;100360.69;6219878;23;20343;-87
2021/12/20 08:39:39;;;;;;;50.25;28.58;;;;;;;3.74;100.00;100378.19;6216136;23;20012;-86
2021/12/20 08:42:05;;;;;;;53.60;27.88;;;;;;;3.62;100.00;100370.34;6216537;23;20020;-84
2021/12/20 08:44:34;;;;;;;53.08;28.90;;;;;;;3.49;100.00;100369.66;6216059;23;20023;-85
2021/12/20 08:47:00;;;;;;;54.38;27.15;;;;;;;3.60;100.00;100361.78;6216309;23;20091;-84
2021/12/20 08:49:26;;;;;;;53.22;28.52;;;;;;;3.35;100.00;100366.44;6215665;23;20009;-84
2021/12/20 08:51:54;;;;;;;47.95;26.65;;;;;;;3.60;100.00;100371.44;6216017;23;20013;-87
2021/12/20 08:54:20;;;;;;;48.25;27.00;;;;;;;3.74;100.00;100373.78;6189182;23;20009;-84
2021/12/20 08:56:46;;;;;;;53.50;28.73;;;;;;;3.71;100.00;100405.50;6215730;23;20009;-84
2021/12/20 08:59:12;;;;;;;63.10;28.83;;;;;;;3.52;100.00;100402.63;6216383;23;20217;-86
2021/12/20 09:01:38;;;;;;;53.13;30.08;;;;;;;3.29;100.00;100409.66;6189244;23;20008;-81
2021/12/20 09:04:05;;;;;;;57.83;29.17;;;;;;;3.46;100.00;100430.16;6215702;23;20447;-83
2021/12/20 09:06:31;;;;;;;54.50;31.25;;;;;;;2.99;100.00;100439.00;6215603;23;20019;-81
2021/12/20 09:08:57;;;;;;;53.22;30.80;;;;;;;3.38;100.00;100445.59;6216714;23;20016;-84
2021/12/20 09:11:23;;;;;;;57.08;30.80;;;;;;;3.21;100.00;100448.72;6217979;23;20012;-85
2021/12/20 09:13:49;;;;;;;159.80;68.55;;;;;;;2.96;100.00;100454.97;6218307;23;20013;-83
2021/12/20 09:16:15;;;;;;;59.85;33.97;;;;;;;2.72;100.00;100435.03;6219075;23;20008;-83
2021/12/20 09:18:41;;;;;;;73.57;36.42;;;;;;;2.80;100.00;100448.38;6191714;23;20012;-84
2021/12/20 09:21:09;;;;;;;72.47;36.40;;;;;;;3.08;100.00;100474.16;6218284;23;20015;-88
2021/12/20 09:23:36;;;;;;;68.50;36.53;;;;;;;3.12;100.00;100483.44;6219479;23;20008;-82
2021/12/20 09:26:02;;;;;;;67.07;37.15;;;;;;;2.96;100.00;100464.59;6216909;23;20009;-81
2021/12/20 09:28:31;;;;;;;87.18;42.42;;;;;;;2.88;100.00;100478.28;6214734;23;20012;-85
2021/12/20 09:30:57;;;;;;;72.85;39.85;;;;;;;2.97;100.00;100481.97;6217790;23;20008;-88
2021/12/20 09:33:24;;;;;;;81.70;42.90;;;;;;;2.69;100.00;100477.09;6216891;23;20033;-88
2021/12/20 09:35:53;;;;;;;81.43;44.00;;;;;;;2.73;100.00;100495.09;6220735;23;20005;-86
2021/12/20 09:38:20;;;;;;;74.43;41.67;;;;;;;2.79;100.00;100506.88;6193612;23;20471;-84
2021/12/20 09:43:32;;;;;;;83.35;44.70;;;;;;;2.86;100.00;100518.56;6168074;23;20067;-89
2021/12/20 09:45:58;;;;;;;83.78;42.70;;;;;;;2.91;100.00;100519.06;6188647;23;20020;-84
2021/12/20 09:48:24;;;;;;;75.65;42.72;;;;;;;3.17;100.00;100533.69;6190362;23;20017;-88
2021/12/20 09:50:53;;;;;;;84.88;45.83;;;;;;;3.20;100.00;100528.22;6191775;23;20263;-86
2021/12/20 09:53:19;;;;;;;77.57;44.78;;;;;;;3.29;100.00;100530.13;6193205;23;20005;-88
2021/12/20 09:55:49;;;;;;;81.38;45.47;;;;;;;3.44;100.00;100544.72;6193965;23;20009;-88
2021/12/20 09:58:21;;;;;;;81.10;44.40;;;;;;;3.28;100.00;100546.78;6193503;23;20009;-89
2021/12/20 10:00:47;;;;;;;81.65;44.30;;;;;;;3.49;100.00;100547.78;6186836;23;20031;-90
2021/12/20 10:03:14;;;;;;;88.43;47.03;;;;;;;3.40;100.00;100550.28;6193102;23;20005;-85
2021/12/20 10:05:40;;;;;;;78.35;43.67;;;;;;;3.54;100.00;100566.63;6166252;23;20052;-87
2021/12/20 10:08:14;;;;;;;73.82;43.55;;;;;;;3.62;100.00;100564.25;6144267;23;20009;-85
2021/12/20 10:10:49;;;;;;;80.13;41.40;;;;;;;3.72;100.00;100580.09;6192670;23;20504;-89
2021/12/20 10:13:35;;;;;;;76.15;42.75;;;;;;;3.88;100.00;100585.03;6198373;23;20009;-82
2021/12/20 10:16:06;;;;;;;70.80;39.83;;;;;;;3.95;100.00;100568.69;6168612;23;20021;-91
2021/12/20 10:18:35;;;;;;;71.65;41.53;;;;;;;3.98;100.00;100592.06;6196705;23;20104;-88
2021/12/20 10:21:05;;;;;;;72.97;40.35;;;;;;;4.18;100.00;100590.50;6199345;23;20016;-85
2021/12/20 10:23:33;;;;;;;69.47;39.78;;;;;;;4.35;100.00;100589.19;6199606;23;20444;-88
2021/12/20 10:26:20;;;;;;;73.82;39.78;;;;;;;4.47;100.00;100612.69;6174273;23;20020;-84
2021/12/20 10:28:51;;;;;;;66.20;37.65;;;;;;;4.58;100.00;100606.56;6203909;23;20071;-85
2021/12/20 10:31:27;;;;;;;70.25;39.75;;;;;;;4.61;100.00;100615.03;6176125;23;20020;-88
2021/12/20 10:34:01;;;;;;;73.50;39.72;;;;;;;4.74;100.00;100624.56;6170692;23;20329;-89
2021/12/20 10:36:32;;;;;;;70.63;39.47;;;;;;;4.71;100.00;100619.56;6208050;23;20428;-86
2021/12/20 10:39:04;;;;;;;72.15;39.83;;;;;;;4.57;100.00;100618.84;6200440;23;20021;-89
2021/12/20 10:41:46;;;;;;;77.82;42.10;;;;;;;4.52;100.00;100618.41;6227950;23;20032;-89
2021/12/20 10:44:16;;;;;;;73.22;40.15;;;;;;;4.47;100.00;100610.06;6226791;23;20016;-88
2021/12/20 10:47:24;;;;;;;74.55;40.15;;;;;;;4.46;100.00;100624.13;6203855;23;20032;-89
2021/12/20 10:49:49;;;;;;;71.10;41.40;;;;;;;4.46;100.00;100634.63;6224656;23;20043;-88
2021/12/20 10:52:25;;;;;;;72.85;41.42;;;;;;;4.59;100.00;100624.84;6204648;23;20009;-88
2021/12/20 10:54:54;;;;;;;75.28;40.90;;;;;;;4.51;100.00;100632.47;6231065;23;20005;-89
2021/12/20 10:57:28;;;;;;;79.22;42.28;;;;;;;4.45;100.00;100656.56;6177825;23;20020;-85
2021/12/20 11:00:21;;;;;;;74.55;41.85;;;;;;;4.52;100.00;100660.38;6202154;23;20043;-89
2021/12/20 11:03:27;;;;;;;;;;;;;;;4.40;100.00;100668.38;6202437;23;20008;-90
2021/12/20 11:06:23;;;;;;;76.53;41.47;;;;;;;4.41;100.00;100649.88;6230123;23;19908;-85
2021/12/20 11:09:05;;;;;;;84.50;42.60;;;;;;;4.40;100.00;100645.59;6207173;23;20039;-84
2021/12/20 11:11:36;;;;;;;76.43;41.13;;;;;;;4.34;100.00;100661.00;6205495;23;20145;-88
2021/12/20 11:14:04;;;;;;;82.03;44.55;;;;;;;4.37;100.00;100648.47;6225519;23;20012;-88
2021/12/20 11:16:49;;;;;;;79.13;43.72;;;;;;;4.36;100.00;100652.03;6226512;23;20032;-88
2021/12/20 11:19:36;;;;;;;76.05;42.30;;;;;;;4.31;100.00;100656.78;6199769;23;20012;-84
2021/12/20 11:22:31;;;;;;;77.43;44.25;;;;;;;4.37;100.00;100656.34;6232371;23;20064;-86
2021/12/20 11:25:12;;;;;;;76.50;42.28;;;;;;;4.29;100.00;100658.72;6192045;23;20017;-87